createdAt,value
2019-03-04T00:00:05.435Z,73.20
2019-03-04T00:01:05.536Z,73.00
2019-03-04T00:02:05.601Z,72.80
2019-03-04T00:03:05.615Z,72.80
2019-03-04T00:04:08.270Z,72.90
2019-03-04T00:05:07.694Z,72.90
2019-03-04T00:06:05.645Z,72.90
2019-03-04T00:07:08.206Z,72.90
2019-03-04T00:08:07.687Z,72.90
2019-03-04T00:09:05.573Z,72.90
2019-03-04T00:10:05.553Z,72.90
2019-03-04T00:11:08.201Z,72.80
2019-03-04T00:12:10.363Z,72.80
2019-03-04T00:13:07.900Z,72.70
2019-03-04T00:14:05.816Z,72.70
2019-03-04T00:15:10.939Z,72.60
2019-03-04T00:16:05.920Z,72.50
2019-03-04T00:17:05.044Z,72.50
2019-03-04T00:18:07.635Z,72.40
2019-03-04T00:19:05.521Z,72.50
2019-03-04T00:20:05.543Z,72.40
2019-03-04T00:21:05.593Z,72.30
2019-03-04T00:22:10.735Z,72.10
2019-03-04T00:23:05.686Z,72.20
2019-03-04T00:24:05.709Z,72.10
2019-03-04T00:25:05.749Z,72.00
2019-03-04T00:26:05.916Z,72.00
2019-03-04T00:27:04.982Z,72.00
2019-03-04T00:28:05.007Z,72.00
2019-03-04T00:29:04.989Z,72.00
2019-03-04T00:30:05.015Z,72.00
2019-03-04T00:31:05.135Z,72.00
2019-03-04T00:32:07.835Z,71.90
2019-03-04T00:33:08.437Z,71.90
2019-03-04T00:34:05.366Z,71.90
2019-03-04T00:35:05.419Z,71.90
2019-03-04T00:36:05.428Z,71.90
2019-03-04T00:37:05.423Z,71.70
2019-03-04T00:38:07.892Z,71.70
2019-03-04T00:39:05.772Z,71.70
2019-03-04T00:40:05.794Z,71.70
2019-03-04T00:41:05.790Z,71.70
2019-03-04T00:42:05.827Z,71.80
2019-03-04T00:43:05.809Z,71.80
2019-03-04T00:44:05.812Z,71.80
2019-03-04T00:45:08.384Z,71.80
2019-03-04T00:46:05.287Z,71.80
2019-03-04T00:47:05.321Z,72.20
2019-03-04T00:48:07.880Z,71.80
2019-03-04T00:49:05.853Z,71.80
2019-03-04T00:50:05.841Z,71.80
2019-03-04T00:51:05.920Z,71.90
2019-03-04T00:52:05.082Z,71.80
2019-03-04T00:53:07.562Z,71.90
2019-03-04T00:54:07.969Z,71.90
2019-03-04T00:55:05.925Z,71.90
2019-03-04T00:56:07.476Z,71.90
2019-03-04T00:57:05.354Z,71.90
2019-03-04T00:58:05.384Z,71.80
2019-03-04T00:59:05.373Z,71.80
2019-03-04T01:00:07.901Z,71.80
2019-03-04T01:01:10.971Z,71.70
2019-03-04T01:02:09.952Z,71.80
2019-03-04T01:03:05.982Z,71.70
2019-03-04T01:04:07.555Z,71.80
2019-03-04T01:05:05.434Z,71.70
2019-03-04T01:06:05.563Z,71.70
2019-03-04T01:07:08.288Z,71.70
2019-03-04T01:08:15.309Z,71.70
2019-03-04T01:09:10.431Z,71.70
2019-03-04T01:10:05.400Z,71.70
2019-03-04T01:11:05.428Z,71.70
2019-03-04T01:12:07.953Z,71.80
2019-03-04T01:13:06.004Z,71.80
2019-03-04T01:14:05.061Z,71.80
2019-03-04T01:15:07.599Z,71.80
2019-03-04T01:16:05.457Z,71.80
2019-03-04T01:17:08.005Z,71.90
2019-03-04T01:18:06.041Z,71.90
2019-03-04T01:19:07.682Z,71.90
2019-03-04T01:20:05.620Z,71.80
2019-03-04T01:21:05.886Z,71.80
2019-03-04T01:22:05.988Z,71.80
2019-03-04T01:23:05.125Z,71.80
2019-03-04T01:24:07.702Z,71.70
2019-03-04T01:25:05.723Z,71.70
2019-03-04T01:26:05.739Z,71.70
2019-03-04T01:27:08.443Z,71.70
2019-03-04T01:28:07.852Z,71.70
2019-03-04T01:29:05.765Z,71.70
2019-03-04T01:30:07.574Z,71.70
2019-03-04T01:31:07.499Z,71.70
2019-03-04T01:32:07.910Z,71.70
2019-03-04T01:33:05.835Z,71.70
2019-03-04T01:34:05.865Z,71.80
2019-03-04T01:35:04.842Z,71.80
2019-03-04T01:36:05.869Z,71.80
2019-03-04T01:37:07.507Z,71.90
2019-03-04T01:38:07.910Z,71.90
2019-03-04T01:39:05.873Z,71.90
2019-03-04T01:40:08.390Z,72.00
2019-03-04T01:41:07.819Z,72.10
2019-03-04T01:42:05.775Z,72.00
2019-03-04T01:43:08.464Z,72.20
2019-03-04T01:44:05.357Z,72.20
2019-03-04T01:45:07.959Z,72.10
2019-03-04T01:46:05.855Z,72.10
2019-03-04T01:47:05.973Z,72.00
2019-03-04T01:48:07.626Z,71.90
2019-03-04T01:49:05.535Z,71.90
2019-03-04T01:50:08.139Z,71.80
2019-03-04T01:51:04.997Z,71.80
2019-03-04T01:52:05.221Z,71.60
2019-03-04T01:53:05.296Z,71.60
2019-03-04T01:54:07.850Z,71.50
2019-03-04T01:55:08.361Z,71.10
2019-03-04T01:56:07.861Z,71.00
2019-03-04T01:57:08.372Z,71.00
2019-03-04T01:58:07.805Z,70.90
2019-03-04T01:59:08.286Z,70.70
2019-03-04T02:00:07.714Z,70.60
2019-03-04T02:01:08.206Z,70.70
2019-03-04T02:02:07.759Z,70.60
2019-03-04T02:03:08.316Z,70.50
2019-03-04T02:04:07.849Z,70.40
2019-03-04T02:05:08.321Z,70.40
2019-03-04T02:06:07.684Z,70.30
2019-03-04T02:07:05.713Z,70.30
2019-03-04T02:08:08.228Z,70.30
2019-03-04T02:09:07.647Z,70.40
2019-03-04T02:10:05.548Z,70.40
2019-03-04T02:11:05.520Z,70.40
2019-03-04T02:12:05.638Z,70.40
2019-03-04T02:13:08.175Z,70.50
2019-03-04T02:14:07.537Z,70.50
2019-03-04T02:15:07.901Z,70.50
2019-03-04T02:16:05.880Z,70.50
2019-03-04T02:17:04.937Z,70.50
2019-03-04T02:18:04.954Z,70.50
2019-03-04T02:19:05.025Z,70.60
2019-03-04T02:20:05.112Z,70.70
2019-03-04T02:21:05.178Z,70.70
2019-03-04T02:22:05.187Z,70.70
2019-03-04T02:23:07.726Z,70.80
2019-03-04T02:24:05.839Z,70.80
2019-03-04T02:25:05.897Z,70.70
2019-03-04T02:26:04.897Z,70.80
2019-03-04T02:27:04.883Z,70.80
2019-03-04T02:28:04.904Z,70.80
2019-03-04T02:29:07.499Z,70.80
2019-03-04T02:30:05.563Z,70.80
2019-03-04T02:31:05.772Z,70.90
2019-03-04T02:32:08.403Z,70.80
2019-03-04T02:33:05.297Z,70.80
2019-03-04T02:34:10.660Z,71.00
2019-03-04T02:35:05.575Z,71.00
2019-03-04T02:36:08.276Z,70.90
2019-03-04T02:37:05.176Z,70.90
2019-03-04T02:38:05.200Z,70.90
2019-03-04T02:39:05.231Z,71.00
2019-03-04T02:40:05.192Z,71.00
2019-03-04T02:41:05.183Z,71.10
2019-03-04T02:42:07.808Z,71.20
2019-03-04T02:43:05.846Z,71.20
2019-03-04T02:44:05.029Z,71.20
2019-03-04T02:45:07.619Z,71.30
2019-03-04T02:46:08.021Z,71.40
2019-03-04T02:47:07.573Z,71.40
2019-03-04T02:48:05.502Z,71.40
2019-03-04T02:49:05.570Z,71.40
2019-03-04T02:50:05.034Z,71.50
2019-03-04T02:51:05.052Z,71.50
2019-03-04T02:52:05.059Z,71.40
2019-03-04T02:53:07.847Z,71.50
2019-03-04T02:54:08.353Z,71.50
2019-03-04T02:55:05.366Z,71.50
2019-03-04T02:56:05.383Z,71.50
2019-03-04T02:57:05.333Z,71.60
2019-03-04T02:58:05.481Z,71.70
2019-03-04T02:59:05.587Z,71.70
2019-03-04T03:00:05.650Z,71.70
2019-03-04T03:01:05.702Z,71.80
2019-03-04T03:02:08.227Z,71.90
2019-03-04T03:03:07.629Z,71.90
2019-03-04T03:04:05.520Z,71.90
2019-03-04T03:05:08.050Z,72.10
2019-03-04T03:06:07.446Z,72.10
2019-03-04T03:07:05.358Z,72.10
2019-03-04T03:08:05.388Z,72.10
2019-03-04T03:09:07.905Z,72.10
2019-03-04T03:10:05.907Z,72.10
2019-03-04T03:11:05.048Z,72.10
2019-03-04T03:12:05.123Z,72.20
2019-03-04T03:13:07.833Z,72.20
2019-03-04T03:14:05.760Z,72.20
2019-03-04T03:15:05.812Z,72.20
2019-03-04T03:16:05.812Z,72.20
2019-03-04T03:17:05.900Z,72.40
2019-03-04T03:18:05.985Z,72.40
2019-03-04T03:19:05.001Z,72.40
2019-03-04T03:20:04.980Z,72.40
2019-03-04T03:21:07.532Z,71.90
2019-03-04T03:22:05.533Z,71.90
2019-03-04T03:23:05.620Z,71.70
2019-03-04T03:24:05.716Z,71.60
2019-03-04T03:25:08.309Z,70.70
2019-03-04T03:26:05.175Z,70.70
2019-03-04T03:27:05.185Z,70.50
2019-03-04T03:28:05.158Z,70.30
2019-03-04T03:29:05.313Z,69.90
2019-03-04T03:30:05.507Z,69.90
2019-03-04T03:31:05.502Z,69.50
2019-03-04T03:32:05.570Z,69.30
2019-03-04T03:33:05.589Z,69.40
2019-03-04T03:34:08.205Z,68.80
2019-03-04T03:35:09.140Z,68.60
2019-03-04T03:36:05.183Z,68.60
2019-03-04T03:37:07.775Z,67.80
2019-03-04T03:38:05.704Z,67.80
2019-03-04T03:39:05.748Z,67.80
2019-03-04T03:40:05.908Z,67.70
2019-03-04T03:41:07.522Z,67.80
2019-03-04T03:42:05.485Z,67.80
2019-03-04T03:43:08.009Z,67.80
2019-03-04T03:44:04.925Z,67.80
2019-03-04T03:45:07.479Z,67.90
2019-03-04T03:46:05.421Z,67.90
2019-03-04T03:47:05.585Z,67.90
2019-03-04T03:48:08.300Z,67.90
2019-03-04T03:49:07.746Z,67.80
2019-03-04T03:50:08.223Z,67.90
2019-03-04T03:51:05.164Z,67.90
2019-03-04T03:52:07.714Z,68.00
2019-03-04T03:53:05.646Z,67.90
2019-03-04T03:54:05.743Z,68.00
2019-03-04T03:55:05.973Z,67.70
2019-03-04T03:56:05.051Z,67.80
2019-03-04T03:57:05.182Z,67.80
2019-03-04T03:58:05.363Z,67.80
2019-03-04T03:59:07.901Z,67.80
2019-03-04T04:00:05.876Z,67.70
2019-03-04T04:01:05.004Z,67.70
2019-03-04T04:02:05.091Z,67.70
2019-03-04T04:03:07.627Z,67.80
2019-03-04T04:04:08.154Z,67.60
2019-03-04T04:05:07.598Z,67.50
2019-03-04T04:06:05.586Z,67.50
2019-03-04T04:07:05.597Z,67.60
2019-03-04T04:08:08.117Z,67.70
2019-03-04T04:09:05.005Z,67.70
2019-03-04T04:10:04.997Z,67.60
2019-03-04T04:11:05.010Z,67.60
2019-03-04T04:12:05.013Z,67.60
2019-03-04T04:13:10.202Z,67.50
2019-03-04T04:14:07.714Z,67.40
2019-03-04T04:15:05.606Z,67.40
2019-03-04T04:16:08.365Z,67.30
2019-03-04T04:17:05.346Z,67.20
2019-03-04T04:18:05.458Z,67.30
2019-03-04T04:19:05.532Z,67.20
2019-03-04T04:20:05.583Z,67.00
2019-03-04T04:21:05.647Z,67.00
2019-03-04T04:22:08.344Z,67.10
2019-03-04T04:23:05.444Z,67.10
2019-03-04T04:24:05.594Z,66.90
2019-03-04T04:25:08.285Z,66.90
2019-03-04T04:26:07.881Z,66.80
2019-03-04T04:27:05.769Z,66.80
2019-03-04T04:28:05.766Z,66.60
2019-03-04T04:29:08.364Z,66.50
2019-03-04T04:30:05.238Z,66.50
2019-03-04T04:31:05.268Z,66.40
2019-03-04T04:32:05.445Z,66.40
2019-03-04T04:33:05.603Z,66.40
2019-03-04T04:34:08.175Z,66.60
2019-03-04T04:35:07.670Z,66.50
2019-03-04T04:36:08.259Z,66.40
2019-03-04T04:37:05.249Z,66.30
2019-03-04T04:38:07.837Z,66.20
2019-03-04T04:39:05.775Z,66.20
2019-03-04T04:40:05.791Z,66.20
2019-03-04T04:41:05.950Z,66.30
2019-03-04T04:42:07.697Z,66.10
2019-03-04T04:43:05.602Z,66.10
2019-03-04T04:44:05.571Z,66.20
2019-03-04T04:45:08.065Z,66.20
2019-03-04T04:46:07.866Z,66.20
2019-03-04T04:47:05.742Z,66.30
2019-03-04T04:48:05.724Z,66.10
2019-03-04T04:49:05.803Z,65.90
2019-03-04T04:50:08.333Z,65.90
2019-03-04T04:51:05.177Z,65.90
2019-03-04T04:52:07.652Z,65.90
2019-03-04T04:53:08.175Z,66.00
2019-03-04T04:54:07.597Z,66.10
2019-03-04T04:55:07.967Z,66.00
2019-03-04T04:56:05.857Z,66.10
2019-03-04T04:57:05.876Z,66.00
2019-03-04T04:58:08.550Z,66.00
2019-03-04T04:59:05.450Z,65.90
2019-03-04T05:00:05.474Z,65.80
2019-03-04T05:01:05.507Z,65.70
2019-03-04T05:02:08.132Z,65.70
2019-03-04T05:03:04.992Z,65.70
2019-03-04T05:04:05.001Z,65.70
2019-03-04T05:05:05.133Z,66.00
2019-03-04T05:06:07.626Z,65.80
2019-03-04T05:07:05.532Z,65.90
2019-03-04T05:08:05.579Z,65.90
2019-03-04T05:09:05.615Z,65.90
2019-03-04T05:10:08.199Z,65.90
2019-03-04T05:11:05.074Z,65.80
2019-03-04T05:12:05.186Z,65.80
2019-03-04T05:13:05.325Z,65.70
2019-03-04T05:14:07.860Z,65.70
2019-03-04T05:15:05.691Z,65.70
2019-03-04T05:16:08.359Z,65.70
2019-03-04T05:17:05.315Z,65.70
2019-03-04T05:18:05.290Z,65.60
2019-03-04T05:19:05.345Z,65.70
2019-03-04T05:20:05.346Z,65.60
2019-03-04T05:21:05.360Z,65.60
2019-03-04T05:22:05.368Z,65.60
2019-03-04T05:23:08.018Z,65.60
2019-03-04T05:24:05.033Z,65.60
2019-03-04T05:25:10.254Z,65.40
2019-03-04T05:26:07.699Z,65.40
2019-03-04T05:27:05.628Z,65.40
2019-03-04T05:28:05.681Z,65.40
2019-03-04T05:29:05.645Z,65.30
2019-03-04T05:30:07.422Z,65.40
2019-03-04T05:31:07.913Z,65.30
2019-03-04T05:32:05.826Z,65.30
2019-03-04T05:33:05.871Z,65.20
2019-03-04T05:34:04.954Z,65.10
2019-03-04T05:35:05.058Z,65.00
2019-03-04T05:36:05.050Z,65.00
2019-03-04T05:37:07.543Z,64.70
2019-03-04T05:38:07.977Z,64.60
2019-03-04T05:39:05.386Z,64.60
2019-03-04T05:40:07.867Z,64.30
2019-03-04T05:41:08.248Z,64.30
2019-03-04T05:42:05.141Z,64.30
2019-03-04T05:43:07.758Z,64.10
2019-03-04T05:44:05.777Z,64.10
2019-03-04T05:45:05.979Z,64.00
2019-03-04T05:46:04.937Z,63.80
2019-03-04T05:47:07.480Z,63.40
2019-03-04T05:48:07.517Z,63.40
2019-03-04T05:49:05.715Z,63.30
2019-03-04T05:50:07.650Z,62.80
2019-03-04T05:51:05.604Z,62.80
2019-03-04T05:52:08.254Z,62.60
2019-03-04T05:53:05.302Z,62.60
2019-03-04T05:54:05.298Z,62.40
2019-03-04T05:55:09.281Z,62.10
2019-03-04T05:56:07.798Z,61.90
2019-03-04T05:57:08.298Z,61.70
2019-03-04T05:58:05.251Z,61.70
2019-03-04T05:59:05.388Z,61.40
2019-03-04T06:00:05.860Z,61.20
2019-03-04T06:01:05.037Z,61.20
2019-03-04T06:02:07.624Z,61.20
2019-03-04T06:03:05.538Z,61.10
2019-03-04T06:04:08.123Z,60.80
2019-03-04T06:05:05.189Z,60.70
2019-03-04T06:06:07.804Z,60.50
2019-03-04T06:07:05.679Z,60.50
2019-03-04T06:08:05.766Z,60.50
2019-03-04T06:09:05.820Z,60.40
2019-03-04T06:10:05.053Z,60.60
2019-03-04T06:11:07.646Z,60.80
2019-03-04T06:12:05.538Z,60.70
2019-03-04T06:13:08.112Z,60.90
2019-03-04T06:14:05.151Z,60.90
2019-03-04T06:15:05.247Z,61.10
2019-03-04T06:16:05.255Z,61.20
2019-03-04T06:17:07.910Z,61.30
2019-03-04T06:18:05.801Z,61.30
2019-03-04T06:19:05.865Z,61.20
2019-03-04T06:20:05.877Z,61.10
2019-03-04T06:21:05.043Z,61.20
2019-03-04T06:22:05.065Z,61.10
2019-03-04T06:23:05.104Z,61.10
2019-03-04T06:24:05.105Z,61.10
2019-03-04T06:25:07.882Z,61.10
2019-03-04T06:26:04.890Z,61.10
2019-03-04T06:27:04.990Z,61.10
2019-03-04T06:28:05.096Z,61.10
2019-03-04T06:29:07.809Z,61.10
2019-03-04T06:30:05.938Z,61.10
2019-03-04T06:31:05.102Z,61.00
2019-03-04T06:32:07.892Z,61.00
2019-03-04T06:33:05.834Z,61.00
2019-03-04T06:34:05.902Z,61.00
2019-03-04T06:35:05.008Z,61.10
2019-03-04T06:36:05.072Z,61.00
2019-03-04T06:37:05.077Z,60.90
2019-03-04T06:38:05.050Z,61.10
2019-03-04T06:39:05.171Z,61.10
2019-03-04T06:40:07.862Z,61.30
2019-03-04T06:41:05.797Z,61.30
2019-03-04T06:42:05.901Z,61.40
2019-03-04T06:43:07.493Z,61.50
2019-03-04T06:44:05.412Z,61.50
2019-03-04T06:45:05.549Z,61.40
2019-03-04T06:46:08.260Z,61.40
2019-03-04T06:47:05.150Z,61.50
2019-03-04T06:48:05.155Z,61.40
2019-03-04T06:49:05.135Z,61.30
2019-03-04T06:50:07.636Z,61.10
2019-03-04T06:51:08.058Z,60.90
2019-03-04T06:52:05.065Z,60.90
2019-03-04T06:53:05.090Z,60.80
2019-03-04T06:54:07.737Z,60.80
2019-03-04T06:55:05.719Z,60.80
2019-03-04T06:56:05.756Z,60.80
2019-03-04T06:57:05.812Z,60.60
2019-03-04T06:58:08.467Z,60.10
2019-03-04T06:59:05.491Z,60.10
2019-03-04T07:00:05.559Z,60.20
2019-03-04T07:01:05.813Z,60.00
2019-03-04T07:02:05.824Z,59.90
2019-03-04T07:03:09.671Z,59.70
2019-03-04T07:04:05.600Z,59.70
2019-03-04T07:05:05.599Z,59.60
2019-03-04T07:06:08.451Z,59.50
2019-03-04T07:07:05.425Z,59.50
2019-03-04T07:08:05.514Z,59.20
2019-03-04T07:09:08.057Z,59.20
2019-03-04T07:10:04.910Z,59.20
2019-03-04T07:11:07.444Z,59.30
2019-03-04T07:12:07.826Z,59.00
2019-03-04T07:13:05.788Z,59.00
2019-03-04T07:14:05.769Z,59.10
2019-03-04T07:15:08.445Z,59.30
2019-03-04T07:16:08.111Z,59.20
2019-03-04T07:17:05.222Z,59.30
2019-03-04T07:18:07.839Z,59.00
2019-03-04T07:19:05.792Z,59.00
2019-03-04T07:20:05.848Z,58.70
2019-03-04T07:21:08.419Z,58.40
2019-03-04T07:22:07.926Z,58.20
2019-03-04T07:23:05.847Z,58.20
2019-03-04T07:24:08.354Z,57.80
2019-03-04T07:25:05.213Z,57.80
2019-03-04T07:26:07.701Z,57.80
2019-03-04T07:27:05.555Z,57.80
2019-03-04T07:28:05.517Z,57.60
2019-03-04T07:29:05.533Z,57.70
2019-03-04T07:30:10.603Z,57.10
2019-03-04T07:31:08.067Z,57.20
2019-03-04T07:32:10.122Z,57.30
2019-03-04T07:33:07.569Z,57.30
2019-03-04T07:34:08.015Z,57.30
2019-03-04T07:35:08.406Z,57.60
2019-03-04T07:36:05.255Z,57.60
2019-03-04T07:37:05.203Z,57.60
2019-03-04T07:38:05.175Z,57.60
2019-03-04T07:39:05.238Z,57.80
2019-03-04T07:40:05.406Z,57.80
2019-03-04T07:41:10.407Z,57.90
2019-03-04T07:42:07.756Z,57.90
2019-03-04T07:43:05.498Z,57.90
2019-03-04T07:44:08.101Z,57.90
2019-03-04T07:45:05.020Z,57.90
2019-03-04T07:46:04.971Z,57.90
2019-03-04T07:47:04.914Z,58.00
2019-03-04T07:48:05.899Z,58.10
2019-03-04T07:49:06.017Z,58.10
2019-03-04T07:50:05.067Z,57.90
2019-03-04T07:51:07.560Z,56.50
2019-03-04T07:52:05.960Z,56.20
2019-03-04T07:53:04.922Z,56.00
2019-03-04T07:54:07.466Z,55.60
2019-03-04T07:55:10.380Z,55.20
2019-03-04T07:56:05.257Z,55.10
2019-03-04T07:57:05.278Z,54.30
2019-03-04T07:58:05.258Z,54.50
2019-03-04T07:59:05.230Z,53.90
2019-03-04T08:00:05.380Z,53.80
2019-03-04T08:01:05.394Z,53.60
2019-03-04T08:02:05.408Z,53.10
2019-03-04T08:03:05.718Z,52.70
2019-03-04T08:04:05.846Z,52.10
2019-03-04T08:05:05.871Z,51.60
2019-03-04T08:06:05.918Z,51.50
2019-03-04T08:07:05.042Z,51.20
2019-03-04T08:08:07.599Z,50.80
2019-03-04T08:09:05.481Z,50.80
2019-03-04T08:10:07.949Z,49.10
2019-03-04T08:11:05.955Z,49.00
2019-03-04T08:12:05.080Z,49.20
2019-03-04T08:13:07.567Z,48.90
2019-03-04T08:14:07.976Z,49.10
2019-03-04T08:15:08.487Z,48.80
2019-03-04T08:16:05.481Z,48.80
2019-03-04T08:17:05.640Z,48.90
2019-03-04T08:18:05.670Z,48.90
2019-03-04T08:19:08.150Z,49.00
2019-03-04T08:20:04.971Z,49.00
2019-03-04T08:21:04.930Z,48.70
2019-03-04T08:22:07.528Z,47.80
2019-03-04T08:23:05.501Z,47.80
2019-03-04T08:24:08.014Z,46.50
2019-03-04T08:25:05.872Z,46.50
2019-03-04T08:26:05.854Z,46.10
2019-03-04T08:27:05.842Z,45.90
2019-03-04T08:28:05.915Z,45.80
2019-03-04T08:29:04.888Z,46.40
2019-03-04T08:30:05.895Z,46.70
2019-03-04T08:31:04.900Z,46.90
2019-03-04T08:32:04.939Z,47.10
2019-03-04T08:33:04.888Z,46.60
2019-03-04T08:34:05.872Z,46.50
2019-03-04T08:35:08.397Z,46.30
2019-03-04T08:36:05.277Z,46.30
2019-03-04T08:37:05.412Z,46.50
2019-03-04T08:38:07.941Z,46.30
2019-03-04T08:39:05.764Z,46.30
2019-03-04T08:40:05.750Z,46.10
2019-03-04T08:41:08.352Z,45.90
2019-03-04T08:42:07.796Z,45.80
2019-03-04T08:43:05.665Z,45.80
2019-03-04T08:44:08.229Z,45.70
2019-03-04T08:45:05.105Z,45.70
2019-03-04T08:46:05.217Z,46.10
2019-03-04T08:47:07.865Z,46.10
2019-03-04T08:48:08.405Z,46.20
2019-03-04T08:49:07.890Z,46.10
2019-03-04T08:50:05.882Z,46.00
2019-03-04T08:51:04.933Z,45.90
2019-03-04T08:52:04.874Z,46.00
2019-03-04T08:53:05.875Z,46.10
2019-03-04T08:54:05.893Z,46.10
2019-03-04T08:55:07.509Z,45.70
2019-03-04T08:56:05.408Z,45.70
2019-03-04T08:57:05.425Z,45.90
2019-03-04T08:58:05.385Z,45.50
2019-03-04T08:59:07.961Z,45.20
2019-03-04T09:00:05.848Z,45.20
2019-03-04T09:01:05.992Z,45.20
2019-03-04T09:02:05.013Z,45.40
2019-03-04T09:03:05.045Z,45.40
2019-03-04T09:04:05.092Z,45.50
2019-03-04T09:05:05.216Z,45.20
2019-03-04T09:06:05.158Z,45.20
2019-03-04T09:07:05.235Z,45.10
2019-03-04T09:08:05.372Z,45.10
2019-03-04T09:09:07.883Z,45.10
2019-03-04T09:10:08.250Z,44.80
2019-03-04T09:11:05.074Z,44.90
2019-03-04T09:12:07.506Z,45.40
2019-03-04T09:13:05.413Z,45.40
2019-03-04T09:14:05.405Z,45.40
2019-03-04T09:15:05.375Z,45.60
2019-03-04T09:16:05.329Z,45.70
2019-03-04T09:17:11.055Z,45.60
2019-03-04T09:18:05.038Z,45.70
2019-03-04T09:19:07.704Z,46.00
2019-03-04T09:20:05.714Z,46.10
2019-03-04T09:21:05.652Z,46.00
2019-03-04T09:22:08.140Z,45.70
2019-03-04T09:23:05.054Z,45.70
2019-03-04T09:24:10.268Z,45.50
2019-03-04T09:25:05.199Z,45.40
2019-03-04T09:26:05.238Z,45.10
2019-03-04T09:27:05.194Z,45.60
2019-03-04T09:28:05.253Z,45.60
2019-03-04T09:29:07.756Z,44.70
2019-03-04T09:30:08.126Z,44.60
2019-03-04T09:31:04.958Z,44.60
2019-03-04T09:32:05.026Z,44.20
2019-03-04T09:33:05.033Z,44.00
2019-03-04T09:34:07.704Z,42.60
2019-03-04T09:35:05.588Z,42.60
2019-03-04T09:36:05.764Z,42.60
2019-03-04T09:37:05.898Z,41.60
2019-03-04T09:38:04.884Z,40.90
2019-03-04T09:39:08.434Z,40.60
2019-03-04T09:40:05.322Z,40.60
2019-03-04T09:41:05.256Z,39.70
2019-03-04T09:42:07.771Z,38.20
2019-03-04T09:43:05.692Z,38.20
2019-03-04T09:44:13.431Z,37.50
2019-03-04T09:45:05.326Z,37.50
2019-03-04T09:46:05.428Z,37.40
2019-03-04T09:47:05.486Z,37.60
2019-03-04T09:48:08.111Z,37.00
2019-03-04T09:49:05.061Z,37.00
2019-03-04T09:50:05.125Z,37.20
2019-03-04T09:51:07.717Z,36.10
2019-03-04T09:52:05.578Z,36.10
2019-03-04T09:53:05.595Z,36.10
2019-03-04T09:54:05.735Z,36.10
2019-03-04T09:55:05.731Z,36.40
2019-03-04T09:56:05.743Z,36.10
2019-03-04T09:57:08.218Z,35.70
2019-03-04T09:58:07.574Z,35.80
2019-03-04T09:59:08.047Z,36.20
2019-03-04T10:00:04.928Z,36.20
2019-03-04T10:01:11.091Z,35.80
2019-03-04T10:02:05.045Z,35.80
2019-03-04T10:03:05.030Z,36.00
2019-03-04T10:04:05.028Z,36.30
2019-03-04T10:05:05.031Z,36.50
2019-03-04T10:06:07.488Z,36.80
2019-03-04T10:07:05.319Z,36.80
2019-03-04T10:08:05.324Z,36.70
2019-03-04T10:09:05.293Z,37.00
2019-03-04T10:10:07.909Z,37.40
2019-03-04T10:11:05.767Z,37.40
2019-03-04T10:12:08.208Z,37.40
2019-03-04T10:13:05.126Z,37.40
2019-03-04T10:14:05.139Z,37.40
2019-03-04T10:15:09.161Z,37.40
2019-03-04T10:16:05.237Z,37.70
2019-03-04T10:17:07.761Z,37.10
2019-03-04T10:18:08.150Z,37.40
2019-03-04T10:19:05.090Z,37.50
2019-03-04T10:20:05.127Z,37.70
2019-03-04T10:21:05.098Z,37.90
2019-03-04T10:22:05.331Z,37.60
2019-03-04T10:23:05.403Z,37.10
2019-03-04T10:24:05.434Z,37.00
2019-03-04T10:25:08.026Z,37.50
2019-03-04T10:26:05.843Z,37.30
2019-03-04T10:27:05.824Z,36.90
2019-03-04T10:28:08.484Z,36.40
2019-03-04T10:29:10.383Z,36.40
2019-03-04T10:30:07.839Z,36.70
2019-03-04T10:31:08.303Z,36.70
2019-03-04T10:32:05.159Z,36.70
2019-03-04T10:33:07.740Z,36.40
2019-03-04T10:34:05.625Z,36.40
2019-03-04T10:35:05.612Z,36.40
2019-03-04T10:36:05.548Z,36.20
2019-03-04T10:37:05.871Z,36.00
2019-03-04T10:38:05.845Z,35.90
2019-03-04T10:39:08.303Z,36.40
2019-03-04T10:40:07.799Z,35.70
2019-03-04T10:41:08.295Z,35.40
2019-03-04T10:42:07.698Z,35.20
2019-03-04T10:43:05.653Z,35.20
2019-03-04T10:44:05.769Z,35.60
2019-03-04T10:45:05.838Z,35.80
2019-03-04T10:46:05.914Z,35.20
2019-03-04T10:47:07.544Z,35.40
2019-03-04T10:48:05.566Z,35.50
2019-03-04T10:49:08.044Z,34.70
2019-03-04T10:50:08.414Z,34.80
2019-03-04T10:51:05.195Z,34.80
2019-03-04T10:52:10.196Z,34.70
2019-03-04T10:53:07.587Z,34.80
2019-03-04T10:54:05.459Z,34.80
2019-03-04T10:55:10.545Z,34.80
2019-03-04T10:56:05.413Z,34.80
2019-03-04T10:57:07.870Z,35.00
2019-03-04T10:58:05.725Z,35.00
2019-03-04T10:59:05.648Z,34.70
2019-03-04T11:00:08.128Z,35.00
2019-03-04T11:01:05.094Z,35.00
2019-03-04T11:02:07.778Z,35.40
2019-03-04T11:03:05.632Z,35.30
2019-03-04T11:04:05.626Z,35.00
2019-03-04T11:05:07.482Z,34.60
2019-03-04T11:06:05.308Z,34.60
2019-03-04T11:07:05.399Z,34.30
2019-03-04T11:08:05.327Z,34.30
2019-03-04T11:09:07.788Z,34.20
2019-03-04T11:10:05.653Z,34.20
2019-03-04T11:11:05.601Z,34.20
2019-03-04T11:12:05.669Z,34.60
2019-03-04T11:13:08.227Z,34.70
2019-03-04T11:14:05.071Z,34.60
2019-03-04T11:15:05.092Z,34.50
2019-03-04T11:16:07.674Z,34.80
2019-03-04T11:17:05.607Z,34.80
2019-03-04T11:18:05.599Z,35.00
2019-03-04T11:19:05.573Z,35.30
2019-03-04T11:20:05.541Z,35.60
2019-03-04T11:21:05.454Z,35.60
2019-03-04T11:22:05.376Z,35.50
2019-03-04T11:23:05.347Z,35.90
2019-03-04T11:24:05.353Z,36.10
2019-03-04T11:25:05.265Z,36.30
2019-03-04T11:26:07.748Z,36.50
2019-03-04T11:27:08.156Z,36.90
2019-03-04T11:28:07.493Z,37.20
2019-03-04T11:29:05.274Z,37.10
2019-03-04T11:30:05.192Z,37.20
2019-03-04T11:31:07.655Z,37.10
2019-03-04T11:32:05.556Z,37.10
2019-03-04T11:33:05.489Z,37.40
2019-03-04T11:34:05.402Z,37.80
2019-03-04T11:35:07.890Z,37.00
2019-03-04T11:36:05.840Z,36.90
2019-03-04T11:37:08.750Z,34.90
2019-03-04T11:38:05.624Z,34.90
2019-03-04T11:39:08.408Z,34.80
2019-03-04T11:40:12.976Z,34.50
2019-03-04T11:41:05.855Z,34.50
2019-03-04T11:42:05.819Z,34.20
2019-03-04T11:43:05.774Z,34.10
2019-03-04T11:44:08.255Z,34.30
2019-03-04T11:45:07.654Z,34.60
2019-03-04T11:46:08.129Z,34.70
2019-03-04T11:47:05.026Z,34.70
2019-03-04T11:48:05.037Z,34.80
2019-03-04T11:49:05.163Z,34.90
2019-03-04T11:50:05.231Z,35.30
2019-03-04T11:51:07.781Z,35.80
2019-03-04T11:52:05.621Z,35.90
2019-03-04T11:53:08.076Z,36.40
2019-03-04T11:54:04.878Z,36.40
2019-03-04T11:55:05.953Z,36.80
2019-03-04T11:56:07.448Z,37.20
2019-03-04T11:57:07.778Z,37.50
2019-03-04T11:58:05.708Z,37.50
2019-03-04T11:59:05.657Z,37.70
2019-03-04T12:00:05.689Z,37.90
2019-03-04T12:01:05.645Z,38.10
2019-03-04T12:02:08.105Z,38.60
2019-03-04T12:03:04.939Z,38.60
2019-03-04T12:04:08.412Z,38.50
2019-03-04T12:05:05.231Z,38.50
2019-03-04T12:06:05.189Z,38.50
2019-03-04T12:07:05.212Z,38.50
2019-03-04T12:08:05.189Z,38.40
2019-03-04T12:09:05.286Z,38.50
2019-03-04T12:10:05.510Z,38.90
2019-03-04T12:11:05.486Z,39.00
2019-03-04T12:12:05.415Z,39.10
2019-03-04T12:13:08.046Z,39.40
2019-03-04T12:14:07.439Z,39.40
2019-03-04T12:15:05.222Z,39.40
2019-03-04T12:16:05.226Z,39.20
2019-03-04T12:17:05.200Z,39.40
2019-03-04T12:18:07.667Z,39.90
2019-03-04T12:19:08.065Z,40.00
2019-03-04T12:20:07.441Z,40.20
2019-03-04T12:21:07.855Z,40.60
2019-03-04T12:22:05.716Z,40.60
2019-03-04T12:23:08.237Z,40.90
2019-03-04T12:24:07.632Z,41.00
2019-03-04T12:25:05.527Z,41.00
2019-03-04T12:26:05.517Z,40.80
2019-03-04T12:27:05.505Z,40.90
2019-03-04T12:28:05.440Z,41.10
2019-03-04T12:29:05.413Z,41.40
2019-03-04T12:30:05.342Z,41.50
2019-03-04T12:31:07.770Z,41.80
2019-03-04T12:32:05.890Z,41.70
2019-03-04T12:33:04.921Z,42.00
2019-03-04T12:34:06.007Z,41.70
2019-03-04T12:35:07.709Z,42.20
2019-03-04T12:36:05.863Z,42.20
2019-03-04T12:37:05.250Z,42.40
2019-03-04T12:38:10.861Z,42.80
2019-03-04T12:39:06.384Z,42.80
2019-03-04T12:40:06.288Z,42.90
2019-03-04T12:41:13.623Z,43.00
2019-03-04T12:42:05.999Z,43.00
2019-03-04T12:43:05.526Z,43.20
2019-03-04T12:44:08.437Z,43.30
2019-03-04T12:45:05.642Z,43.30
2019-03-04T12:46:10.975Z,43.40
2019-03-04T12:47:16.184Z,43.30
2019-03-04T12:48:08.677Z,43.40
2019-03-04T12:49:24.011Z,43.60
2019-03-04T12:50:10.377Z,43.70
2019-03-04T12:51:06.091Z,43.80
2019-03-04T12:52:06.084Z,43.60